This is the latest recevied weather packets stored in our database for station/object KI4HRG. If no packets are shown the sender has not sent any weather packets the latest 10 day(s).
| Time | Temp. | Humidity | Pressure | Rain* | Wind** | Luminosity | Snow |
|---|---|---|---|---|---|---|---|
| 1788028722 | 32.22° C | 61% | 1018.4 hPa | 0 mm | - | 178 W/m² | - |
| 1788028417 | 31.67° C | 64% | 1018.5 hPa | 0 mm | - | 184 W/m² | - |
| 1788028113 | 31.67° C | 65% | 1018.6 hPa | 0 mm | - | 140 W/m² | - |
| 1788027813 | 31.67° C | 67% | 1018.6 hPa | 0 mm | - | 170 W/m² | - |
| 1788027507 | 31.67° C | 67% | 1018.7 hPa | 0 mm | - | 177 W/m² | - |
| 1788027202 | 32.22° C | 63% | 1018.7 hPa | 0 mm | - | 187 W/m² | - |
| 1788026901 | 32.22° C | 63% | 1018.9 hPa | 0 mm | - | 196 W/m² | - |
| 1788026597 | 32.22° C | 66% | 1018.9 hPa | 0 mm | - | 221 W/m² | - |
| 1788026297 | 33.33° C | 64% | 1019 hPa | 0 mm | - | 366 W/m² | - |
| 1788025992 | 32.78° C | 64% | 1019.1 hPa | 0 mm | - | 696 W/m² | - |
| 1788025691 | 32.22° C | 67% | 1019 hPa | 0 mm | - | 706 W/m² | - |
| 1788025391 | 32.22° C | 65% | 1019.3 hPa | 0 mm | - | 655 W/m² | - |
| 1788025086 | 31.67° C | 68% | 1019.2 hPa | 0 mm | - | 547 W/m² | - |
| 1788024780 | 31.11° C | 69% | 1019.1 hPa | 0 mm | - | 167 W/m² | - |
| 1788024476 | 31.67° C | 68% | 1019.3 hPa | 0 mm | - | 172 W/m² | - |
| 1788024176 | 31.11° C | 68% | 1019.2 hPa | 0 mm | - | 193 W/m² | - |
| 1788023871 | 31.11° C | 70% | 1019.5 hPa | 0 mm | - | 172 W/m² | - |
| 1788023567 | 31.11° C | 68% | 1019.5 hPa | 0 mm | - | 168 W/m² | - |
| 1788023262 | 31.11° C | 67% | 1019.4 hPa | 0 mm | - | 131 W/m² | - |
| 1788022956 | 31.67° C | 68% | 1019.5 hPa | 0 mm | - | 218 W/m² | - |
| 1788022654 | 31.67° C | 66% | 1019.7 hPa | 0 mm | - | 349 W/m² | - |
| 1788022353 | 32.22° C | 66% | 1019.6 hPa | 0 mm | - | 502 W/m² | - |
| 1788022053 | 31.67° C | 66% | 1019.6 hPa | 0 mm | - | 854 W/m² | - |
| 1788021747 | 31.11° C | 69% | 1019.6 hPa | 0 mm | - | 390 W/m² | - |
| 1788021445 | 32.22° C | 68% | 1019.5 hPa | 0 mm | - | 390 W/m² | - |
* Rain latest hour (hover to see other rain measurements)
** Current wind speed in m/s (hover to see current wind gust speed)